sensor_id;sensor_type;location;lat;lon;timestamp;temperature;humidity
18934;DHT22;9599;53.706;10.384;2024-03-23T00:55:00;7.20;99.90
18934;DHT22;9599;53.706;10.384;2024-03-23T00:57:26;7.20;99.90
18934;DHT22;9599;53.706;10.384;2024-03-23T00:59:53;7.20;99.90
18934;DHT22;9599;53.706;10.384;2024-03-23T01:02:19;7.20;99.90
18934;DHT22;9599;53.706;10.384;2024-03-23T01:04:47;7.20;99.90
18934;DHT22;9599;53.706;10.384;2024-03-23T01:07:13;7.20;99.90
18934;DHT22;9599;53.706;10.384;2024-03-23T01:09:41;7.10;99.90
18934;DHT22;9599;53.706;10.384;2024-03-23T01:12:07;7.10;99.90
18934;DHT22;9599;53.706;10.384;2024-03-23T01:14:35;7.10;99.90
18934;DHT22;9599;53.706;10.384;2024-03-23T01:17:02;7.10;99.90
18934;DHT22;9599;53.706;10.384;2024-03-23T01:19:29;7.10;99.90
18934;DHT22;9599;53.706;10.384;2024-03-23T01:21:56;7.10;99.90
18934;DHT22;9599;53.706;10.384;2024-03-23T01:24:23;7.00;99.90
18934;DHT22;9599;53.706;10.384;2024-03-23T01:26:50;7.00;99.90
18934;DHT22;9599;53.706;10.384;2024-03-23T01:29:17;7.00;99.90
18934;DHT22;9599;53.706;10.384;2024-03-23T01:31:44;7.00;99.90
18934;DHT22;9599;53.706;10.384;2024-03-23T01:34:11;7.00;99.90
18934;DHT22;9599;53.706;10.384;2024-03-23T01:36:38;7.00;99.90
18934;DHT22;9599;53.706;10.384;2024-03-23T01:39:05;7.00;99.90
18934;DHT22;9599;53.706;10.384;2024-03-23T01:41:35;7.00;99.90
18934;DHT22;9599;53.706;10.384;2024-03-23T01:44:05;7.00;99.90
18934;DHT22;9599;53.706;10.384;2024-03-23T01:46:32;7.00;99.90
18934;DHT22;9599;53.706;10.384;2024-03-23T01:48:59;6.90;99.90
18934;DHT22;9599;53.706;10.384;2024-03-23T01:51:27;6.90;99.90
18934;DHT22;9599;53.706;10.384;2024-03-23T01:53:54;6.90;99.90
18934;DHT22;9599;53.706;10.384;2024-03-23T01:56:22;6.90;99.90
18934;DHT22;9599;53.706;10.384;2024-03-23T01:58:49;6.80;99.90
18934;DHT22;9599;53.706;10.384;2024-03-23T02:01:17;6.80;99.90
18934;DHT22;9599;53.706;10.384;2024-03-23T02:03:45;6.80;99.90
18934;DHT22;9599;53.706;10.384;2024-03-23T02:06:11;6.80;99.90
18934;DHT22;9599;53.706;10.384;2024-03-23T02:08:39;6.80;99.90
18934;DHT22;9599;53.706;10.384;2024-03-23T02:11:05;6.70;99.90
18934;DHT22;9599;53.706;10.384;2024-03-23T02:13:33;6.70;99.90
18934;DHT22;9599;53.706;10.384;2024-03-23T02:15:59;6.70;99.90
18934;DHT22;9599;53.706;10.384;2024-03-23T02:18:28;6.70;99.90
18934;DHT22;9599;53.706;10.384;2024-03-23T02:20:54;6.60;99.90
18934;DHT22;9599;53.706;10.384;2024-03-23T02:23:24;6.60;99.90
18934;DHT22;9599;53.706;10.384;2024-03-23T02:25:50;6.60;99.90
18934;DHT22;9599;53.706;10.384;2024-03-23T02:28:19;6.60;99.90
18934;DHT22;9599;53.706;10.384;2024-03-23T02:30:45;6.50;99.90
18934;DHT22;9599;53.706;10.384;2024-03-23T02:33:12;6.50;99.90
18934;DHT22;9599;53.706;10.384;2024-03-23T02:35:38;6.50;99.90
18934;DHT22;9599;53.706;10.384;2024-03-23T02:38:07;6.40;99.90
18934;DHT22;9599;53.706;10.384;2024-03-23T02:40:34;6.40;99.90
18934;DHT22;9599;53.706;10.384;2024-03-23T02:43:03;6.40;99.90
18934;DHT22;9599;53.706;10.384;2024-03-23T02:45:29;6.30;99.90
18934;DHT22;9599;53.706;10.384;2024-03-23T02:47:56;6.30;99.90
18934;DHT22;9599;53.706;10.384;2024-03-23T02:50:23;6.20;99.90
18934;DHT22;9599;53.706;10.384;2024-03-23T02:52:50;6.10;99.90
18934;DHT22;9599;53.706;10.384;2024-03-23T02:55:16;6.10;99.90
18934;DHT22;9599;53.706;10.384;2024-03-23T02:57:45;6.00;99.90
18934;DHT22;9599;53.706;10.384;2024-03-23T03:00:12;6.00;99.90
18934;DHT22;9599;53.706;10.384;2024-03-23T03:02:39;6.00;99.90
18934;DHT22;9599;53.706;10.384;2024-03-23T03:05:06;5.90;99.90
18934;DHT22;9599;53.706;10.384;2024-03-23T03:07:34;5.90;99.90
18934;DHT22;9599;53.706;10.384;2024-03-23T03:10:00;5.80;99.90
18934;DHT22;9599;53.706;10.384;2024-03-23T03:12:28;5.80;99.90
18934;DHT22;9599;53.706;10.384;2024-03-23T03:14:55;5.90;99.90
18934;DHT22;9599;53.706;10.384;2024-03-23T03:17:22;5.90;99.90
18934;DHT22;9599;53.706;10.384;2024-03-23T03:19:49;5.90;99.90
18934;DHT22;9599;53.706;10.384;2024-03-23T03:22:21;5.90;99.90
18934;DHT22;9599;53.706;10.384;2024-03-23T03:24:47;6.00;99.90
18934;DHT22;9599;53.706;10.384;2024-03-23T03:27:15;5.90;99.90
18934;DHT22;9599;53.706;10.384;2024-03-23T03:29:41;5.90;99.90
18934;DHT22;9599;53.706;10.384;2024-03-23T03:32:10;5.80;99.90
18934;DHT22;9599;53.706;10.384;2024-03-23T03:34:36;5.80;99.90
18934;DHT22;9599;53.706;10.384;2024-03-23T03:37:03;5.80;99.90
18934;DHT22;9599;53.706;10.384;2024-03-23T03:39:30;5.90;99.90
18934;DHT22;9599;53.706;10.384;2024-03-23T03:41:57;5.90;99.90
18934;DHT22;9599;53.706;10.384;2024-03-23T03:44:23;5.90;99.90
18934;DHT22;9599;53.706;10.384;2024-03-23T03:46:50;6.00;99.90
18934;DHT22;9599;53.706;10.384;2024-03-23T03:49:18;5.90;99.90
18934;DHT22;9599;53.706;10.384;2024-03-23T03:51:45;6.00;99.90
18934;DHT22;9599;53.706;10.384;2024-03-23T03:54:11;6.00;99.90
18934;DHT22;9599;53.706;10.384;2024-03-23T03:56:39;6.00;99.90
18934;DHT22;9599;53.706;10.384;2024-03-23T03:59:05;5.90;99.90
18934;DHT22;9599;53.706;10.384;2024-03-23T04:01:32;6.00;99.90
18934;DHT22;9599;53.706;10.384;2024-03-23T04:03:58;6.00;99.90
18934;DHT22;9599;53.706;10.384;2024-03-23T04:06:27;6.00;99.90
18934;DHT22;9599;53.706;10.384;2024-03-23T04:08:54;6.00;99.90
18934;DHT22;9599;53.706;10.384;2024-03-23T04:11:21;6.00;99.90
18934;DHT22;9599;53.706;10.384;2024-03-23T04:13:47;5.90;99.90
18934;DHT22;9599;53.706;10.384;2024-03-23T04:16:26;5.90;99.90
18934;DHT22;9599;53.706;10.384;2024-03-23T04:18:52;6.00;99.90
18934;DHT22;9599;53.706;10.384;2024-03-23T04:21:19;5.90;99.90
18934;DHT22;9599;53.706;10.384;2024-03-23T04:23:48;5.90;99.90
18934;DHT22;9599;53.706;10.384;2024-03-23T04:26:16;6.00;99.90
18934;DHT22;9599;53.706;10.384;2024-03-23T04:28:43;5.90;99.90
18934;DHT22;9599;53.706;10.384;2024-03-23T04:31:10;6.00;99.90
18934;DHT22;9599;53.706;10.384;2024-03-23T04:33:37;5.90;99.90
18934;DHT22;9599;53.706;10.384;2024-03-23T04:36:04;5.90;99.90
18934;DHT22;9599;53.706;10.384;2024-03-23T04:38:31;5.90;99.90
18934;DHT22;9599;53.706;10.384;2024-03-23T04:40:59;5.90;99.90
18934;DHT22;9599;53.706;10.384;2024-03-23T04:43:27;5.90;99.90
18934;DHT22;9599;53.706;10.384;2024-03-23T04:45:55;5.90;99.90
18934;DHT22;9599;53.706;10.384;2024-03-23T04:48:23;5.90;99.90
18934;DHT22;9599;53.706;10.384;2024-03-23T04:50:55;5.90;99.90
18934;DHT22;9599;53.706;10.384;2024-03-23T04:53:23;5.90;99.90
18934;DHT22;9599;53.706;10.384;2024-03-23T04:55:54;5.90;99.90
18934;DHT22;9599;53.706;10.384;2024-03-23T04:58:23;5.80;99.90
18934;DHT22;9599;53.706;10.384;2024-03-23T05:00:53;5.80;99.90
18934;DHT22;9599;53.706;10.384;2024-03-23T05:03:21;5.80;99.90
18934;DHT22;9599;53.706;10.384;2024-03-23T05:05:48;5.80;99.90
18934;DHT22;9599;53.706;10.384;2024-03-23T05:08:15;5.80;99.90
18934;DHT22;9599;53.706;10.384;2024-03-23T05:10:42;5.80;99.90
18934;DHT22;9599;53.706;10.384;2024-03-23T05:13:09;5.80;99.90
18934;DHT22;9599;53.706;10.384;2024-03-23T05:15:37;5.80;99.90
18934;DHT22;9599;53.706;10.384;2024-03-23T05:18:05;5.80;99.90
18934;DHT22;9599;53.706;10.384;2024-03-23T05:20:32;5.80;99.90
18934;DHT22;9599;53.706;10.384;2024-03-23T05:22:58;5.80;99.90
18934;DHT22;9599;53.706;10.384;2024-03-23T05:25:26;5.80;99.90
18934;DHT22;9599;53.706;10.384;2024-03-23T05:27:52;5.80;99.90
18934;DHT22;9599;53.706;10.384;2024-03-23T05:30:19;5.80;99.90
18934;DHT22;9599;53.706;10.384;2024-03-23T05:32:47;5.90;99.90
18934;DHT22;9599;53.706;10.384;2024-03-23T05:35:14;5.90;99.90
18934;DHT22;9599;53.706;10.384;2024-03-23T05:37:40;5.80;99.90
18934;DHT22;9599;53.706;10.384;2024-03-23T05:40:08;5.90;99.90
18934;DHT22;9599;53.706;10.384;2024-03-23T05:42:35;5.90;99.90
18934;DHT22;9599;53.706;10.384;2024-03-23T05:45:03;6.00;99.90
18934;DHT22;9599;53.706;10.384;2024-03-23T05:47:32;6.00;99.90
18934;DHT22;9599;53.706;10.384;2024-03-23T05:50:00;6.10;99.90
18934;DHT22;9599;53.706;10.384;2024-03-23T05:52:27;6.00;99.90
18934;DHT22;9599;53.706;10.384;2024-03-23T05:54:55;6.00;99.90
18934;DHT22;9599;53.706;10.384;2024-03-23T05:57:21;6.10;99.90
18934;DHT22;9599;53.706;10.384;2024-03-23T05:59:48;6.10;99.90
18934;DHT22;9599;53.706;10.384;2024-03-23T06:02:14;6.10;99.90
18934;DHT22;9599;53.706;10.384;2024-03-23T06:04:42;6.10;99.90
18934;DHT22;9599;53.706;10.384;2024-03-23T06:07:09;6.20;99.90
18934;DHT22;9599;53.706;10.384;2024-03-23T06:09:39;6.20;99.90
18934;DHT22;9599;53.706;10.384;2024-03-23T06:12:06;6.30;99.90
18934;DHT22;9599;53.706;10.384;2024-03-23T06:14:34;6.30;99.90
18934;DHT22;9599;53.706;10.384;2024-03-23T06:17:00;6.30;99.90
18934;DHT22;9599;53.706;10.384;2024-03-23T06:19:28;6.30;99.90
18934;DHT22;9599;53.706;10.384;2024-03-23T06:21:55;6.40;99.90
18934;DHT22;9599;53.706;10.384;2024-03-23T06:24:23;6.30;99.90
18934;DHT22;9599;53.706;10.384;2024-03-23T06:26:50;6.30;99.90
18934;DHT22;9599;53.706;10.384;2024-03-23T06:29:18;6.40;99.90
18934;DHT22;9599;53.706;10.384;2024-03-23T06:31:53;6.40;99.90
18934;DHT22;9599;53.706;10.384;2024-03-23T06:34:20;6.50;99.90
18934;DHT22;9599;53.706;10.384;2024-03-23T06:36:47;6.60;99.90
18934;DHT22;9599;53.706;10.384;2024-03-23T06:39:15;6.70;99.90
18934;DHT22;9599;53.706;10.384;2024-03-23T06:41:42;6.70;99.90
18934;DHT22;9599;53.706;10.384;2024-03-23T06:44:10;6.80;99.90
18934;DHT22;9599;53.706;10.384;2024-03-23T06:46:36;6.80;99.90
18934;DHT22;9599;53.706;10.384;2024-03-23T06:49:04;6.80;99.90
18934;DHT22;9599;53.706;10.384;2024-03-23T06:51:30;6.90;99.90
18934;DHT22;9599;53.706;10.384;2024-03-23T06:53:58;6.90;99.90
18934;DHT22;9599;53.706;10.384;2024-03-23T06:56:24;7.00;99.90
18934;DHT22;9599;53.706;10.384;2024-03-23T06:58:52;7.10;99.90
18934;DHT22;9599;53.706;10.384;2024-03-23T07:01:19;7.20;99.90
18934;DHT22;9599;53.706;10.384;2024-03-23T07:03:47;7.20;99.90
18934;DHT22;9599;53.706;10.384;2024-03-23T07:06:13;7.30;99.90
18934;DHT22;9599;53.706;10.384;2024-03-23T07:08:40;7.30;99.90
18934;DHT22;9599;53.706;10.384;2024-03-23T07:11:07;7.40;99.90
18934;DHT22;9599;53.706;10.384;2024-03-23T07:13:35;7.50;99.90
18934;DHT22;9599;53.706;10.384;2024-03-23T07:16:03;7.50;99.90
18934;DHT22;9599;53.706;10.384;2024-03-23T07:18:30;7.50;99.90
18934;DHT22;9599;53.706;10.384;2024-03-23T07:20:57;7.50;99.90
18934;DHT22;9599;53.706;10.384;2024-03-23T07:23:24;7.40;99.90
18934;DHT22;9599;53.706;10.384;2024-03-23T07:25:57;7.50;99.90
18934;DHT22;9599;53.706;10.384;2024-03-23T07:28:24;7.50;99.90
18934;DHT22;9599;53.706;10.384;2024-03-23T07:31:03;7.50;99.90
18934;DHT22;9599;53.706;10.384;2024-03-23T07:33:30;7.50;99.90
18934;DHT22;9599;53.706;10.384;2024-03-23T07:35:57;7.50;99.90
18934;DHT22;9599;53.706;10.384;2024-03-23T07:38:26;7.60;99.90
18934;DHT22;9599;53.706;10.384;2024-03-23T07:41:01;7.70;99.90
18934;DHT22;9599;53.706;10.384;2024-03-23T07:43:28;7.70;99.90
18934;DHT22;9599;53.706;10.384;2024-03-23T07:45:55;7.70;99.90
18934;DHT22;9599;53.706;10.384;2024-03-23T07:48:23;7.70;99.90
18934;DHT22;9599;53.706;10.384;2024-03-23T07:51:01;7.80;99.90
18934;DHT22;9599;53.706;10.384;2024-03-23T07:53:28;7.80;99.90
18934;DHT22;9599;53.706;10.384;2024-03-23T07:55:56;7.90;99.90
18934;DHT22;9599;53.706;10.384;2024-03-23T07:58:23;8.00;99.90
18934;DHT22;9599;53.706;10.384;2024-03-23T08:00:50;8.10;99.90
18934;DHT22;9599;53.706;10.384;2024-03-23T08:03:16;8.10;99.90
18934;DHT22;9599;53.706;10.384;2024-03-23T08:05:45;8.20;99.90
18934;DHT22;9599;53.706;10.384;2024-03-23T08:08:11;8.40;99.90
18934;DHT22;9599;53.706;10.384;2024-03-23T08:10:47;8.60;99.90
18934;DHT22;9599;53.706;10.384;2024-03-23T08:13:14;8.80;99.90
18934;DHT22;9599;53.706;10.384;2024-03-23T08:15:42;8.90;99.90
18934;DHT22;9599;53.706;10.384;2024-03-23T08:18:09;9.20;99.90
18934;DHT22;9599;53.706;10.384;2024-03-23T08:20:36;9.10;99.90
18934;DHT22;9599;53.706;10.384;2024-03-23T08:23:05;9.10;99.90
18934;DHT22;9599;53.706;10.384;2024-03-23T08:25:33;9.20;99.90
18934;DHT22;9599;53.706;10.384;2024-03-23T08:27:59;9.40;99.90
18934;DHT22;9599;53.706;10.384;2024-03-23T08:30:27;9.70;99.90
18934;DHT22;9599;53.706;10.384;2024-03-23T08:32:53;9.70;99.90
18934;DHT22;9599;53.706;10.384;2024-03-23T08:35:20;9.60;99.90
18934;DHT22;9599;53.706;10.384;2024-03-23T08:37:47;9.50;99.90
18934;DHT22;9599;53.706;10.384;2024-03-23T08:40:15;9.40;99.90
18934;DHT22;9599;53.706;10.384;2024-03-23T08:42:41;9.40;99.90
18934;DHT22;9599;53.706;10.384;2024-03-23T08:45:10;9.50;99.90
18934;DHT22;9599;53.706;10.384;2024-03-23T08:47:36;9.50;99.90
18934;DHT22;9599;53.706;10.384;2024-03-23T08:50:04;9.60;99.90
18934;DHT22;9599;53.706;10.384;2024-03-23T08:52:31;9.70;99.90
18934;DHT22;9599;53.706;10.384;2024-03-23T08:54:57;9.90;99.90
18934;DHT22;9599;53.706;10.384;2024-03-23T08:57:26;10.00;99.90
18934;DHT22;9599;53.706;10.384;2024-03-23T08:59:52;10.00;99.90
18934;DHT22;9599;53.706;10.384;2024-03-23T09:02:19;10.20;99.90
18934;DHT22;9599;53.706;10.384;2024-03-23T09:04:47;10.30;99.90
18934;DHT22;9599;53.706;10.384;2024-03-23T09:07:14;10.30;99.90
18934;DHT22;9599;53.706;10.384;2024-03-23T09:09:40;10.30;99.90
18934;DHT22;9599;53.706;10.384;2024-03-23T09:12:07;10.20;99.90
18934;DHT22;9599;53.706;10.384;2024-03-23T09:14:35;10.30;99.90
18934;DHT22;9599;53.706;10.384;2024-03-23T09:17:03;10.40;99.90
18934;DHT22;9599;53.706;10.384;2024-03-23T09:19:29;10.30;99.90
18934;DHT22;9599;53.706;10.384;2024-03-23T09:21:56;10.10;99.90
18934;DHT22;9599;53.706;10.384;2024-03-23T09:24:22;9.90;99.90
18934;DHT22;9599;53.706;10.384;2024-03-23T09:26:51;9.80;99.90
18934;DHT22;9599;53.706;10.384;2024-03-23T09:29:18;9.60;99.90
18934;DHT22;9599;53.706;10.384;2024-03-23T09:31:46;10.10;99.90
18934;DHT22;9599;53.706;10.384;2024-03-23T09:34:12;10.60;99.90
18934;DHT22;9599;53.706;10.384;2024-03-23T09:36:40;11.00;99.90
18934;DHT22;9599;53.706;10.384;2024-03-23T09:39:07;11.50;99.90
18934;DHT22;9599;53.706;10.384;2024-03-23T09:41:35;11.60;99.90
18934;DHT22;9599;53.706;10.384;2024-03-23T09:44:01;11.60;99.90
18934;DHT22;9599;53.706;10.384;2024-03-23T09:46:29;11.60;99.90
18934;DHT22;9599;53.706;10.384;2024-03-23T09:49:01;11.20;99.90
18934;DHT22;9599;53.706;10.384;2024-03-23T09:51:30;10.70;99.90
18934;DHT22;9599;53.706;10.384;2024-03-23T09:53:56;10.40;99.90
18934;DHT22;9599;53.706;10.384;2024-03-23T09:56:23;10.00;99.90
18934;DHT22;9599;53.706;10.384;2024-03-23T09:58:50;9.80;99.90
18934;DHT22;9599;53.706;10.384;2024-03-23T10:01:18;9.90;99.90
18934;DHT22;9599;53.706;10.384;2024-03-23T10:03:45;9.90;99.90
18934;DHT22;9599;53.706;10.384;2024-03-23T10:06:14;10.00;99.90
18934;DHT22;9599;53.706;10.384;2024-03-23T10:08:47;9.90;99.90
18934;DHT22;9599;53.706;10.384;2024-03-23T10:11:15;10.00;99.90
18934;DHT22;9599;53.706;10.384;2024-03-23T10:13:42;10.20;99.90
18934;DHT22;9599;53.706;10.384;2024-03-23T10:16:10;10.50;99.90
18934;DHT22;9599;53.706;10.384;2024-03-23T10:18:40;10.70;99.90
18934;DHT22;9599;53.706;10.384;2024-03-23T10:21:08;10.90;99.90
18934;DHT22;9599;53.706;10.384;2024-03-23T10:23:39;11.30;99.90
18934;DHT22;9599;53.706;10.384;2024-03-23T10:26:16;11.30;99.90
18934;DHT22;9599;53.706;10.384;2024-03-23T10:28:56;11.00;99.90
18934;DHT22;9599;53.706;10.384;2024-03-23T10:31:26;10.80;99.90
18934;DHT22;9599;53.706;10.384;2024-03-23T10:33:53;10.70;99.90
18934;DHT22;9599;53.706;10.384;2024-03-23T10:36:22;10.60;99.90
18934;DHT22;9599;53.706;10.384;2024-03-23T10:38:50;10.50;99.90
18934;DHT22;9599;53.706;10.384;2024-03-23T10:41:18;10.60;99.90
18934;DHT22;9599;53.706;10.384;2024-03-23T10:43:46;10.60;99.90
18934;DHT22;9599;53.706;10.384;2024-03-23T10:46:14;10.90;99.90
18934;DHT22;9599;53.706;10.384;2024-03-23T10:48:40;11.00;99.90
18934;DHT22;9599;53.706;10.384;2024-03-23T10:51:10;11.40;99.90
18934;DHT22;9599;53.706;10.384;2024-03-23T10:53:36;11.50;99.90
18934;DHT22;9599;53.706;10.384;2024-03-23T10:56:06;11.90;99.90
18934;DHT22;9599;53.706;10.384;2024-03-23T10:58:37;12.00;99.90
18934;DHT22;9599;53.706;10.384;2024-03-23T11:01:05;11.80;99.90
18934;DHT22;9599;53.706;10.384;2024-03-23T11:03:33;11.40;99.90
18934;DHT22;9599;53.706;10.384;2024-03-23T11:06:01;11.00;99.90
18934;DHT22;9599;53.706;10.384;2024-03-23T11:08:31;10.70;99.90
18934;DHT22;9599;53.706;10.384;2024-03-23T11:11:19;10.30;99.90
18934;DHT22;9599;53.706;10.384;2024-03-23T11:13:48;9.90;99.90
18934;DHT22;9599;53.706;10.384;2024-03-23T11:16:23;9.60;99.90
18934;DHT22;9599;53.706;10.384;2024-03-23T11:18:50;9.40;99.90
18934;DHT22;9599;53.706;10.384;2024-03-23T11:21:52;9.30;99.90
18934;DHT22;9599;53.706;10.384;2024-03-23T11:24:20;9.50;99.90
18934;DHT22;9599;53.706;10.384;2024-03-23T11:26:48;10.00;99.90
18934;DHT22;9599;53.706;10.384;2024-03-23T11:29:16;10.40;99.90
18934;DHT22;9599;53.706;10.384;2024-03-23T11:31:47;10.80;99.90
18934;DHT22;9599;53.706;10.384;2024-03-23T11:34:15;11.30;99.90
18934;DHT22;9599;53.706;10.384;2024-03-23T11:36:42;11.50;99.90
18934;DHT22;9599;53.706;10.384;2024-03-23T11:39:13;11.50;99.90
18934;DHT22;9599;53.706;10.384;2024-03-23T11:41:49;11.20;99.90
18934;DHT22;9599;53.706;10.384;2024-03-23T11:44:17;11.00;99.90
18934;DHT22;9599;53.706;10.384;2024-03-23T11:46:44;10.50;99.90
18934;DHT22;9599;53.706;10.384;2024-03-23T11:49:24;10.20;99.90
18934;DHT22;9599;53.706;10.384;2024-03-23T11:51:52;10.00;99.90
18934;DHT22;9599;53.706;10.384;2024-03-23T11:54:20;10.00;99.90
18934;DHT22;9599;53.706;10.384;2024-03-23T11:56:58;10.00;99.90
18934;DHT22;9599;53.706;10.384;2024-03-23T11:59:31;9.90;99.90
18934;DHT22;9599;53.706;10.384;2024-03-23T12:01:58;9.80;99.90
18934;DHT22;9599;53.706;10.384;2024-03-23T12:04:26;9.80;99.90
18934;DHT22;9599;53.706;10.384;2024-03-23T12:07:11;9.90;99.90
18934;DHT22;9599;53.706;10.384;2024-03-23T12:09:39;9.90;99.90
18934;DHT22;9599;53.706;10.384;2024-03-23T12:12:08;9.80;99.90
18934;DHT22;9599;53.706;10.384;2024-03-23T12:14:36;9.80;99.90
18934;DHT22;9599;53.706;10.384;2024-03-23T12:17:09;9.90;99.90
18934;DHT22;9599;53.706;10.384;2024-03-23T12:19:37;10.00;99.90
18934;DHT22;9599;53.706;10.384;2024-03-23T12:22:03;10.20;99.90
18934;DHT22;9599;53.706;10.384;2024-03-23T12:24:31;10.20;99.90
18934;DHT22;9599;53.706;10.384;2024-03-23T12:27:00;10.10;99.90
18934;DHT22;9599;53.706;10.384;2024-03-23T12:29:30;9.80;99.90
18934;DHT22;9599;53.706;10.384;2024-03-23T12:31:59;8.80;99.90
18934;DHT22;9599;53.706;10.384;2024-03-23T12:34:27;7.80;99.90
18934;DHT22;9599;53.706;10.384;2024-03-23T12:36:53;7.10;99.90
18934;DHT22;9599;53.706;10.384;2024-03-23T12:39:22;6.70;99.90
18934;DHT22;9599;53.706;10.384;2024-03-23T12:41:48;6.50;99.90
18934;DHT22;9599;53.706;10.384;2024-03-23T12:44:16;6.30;99.90
18934;DHT22;9599;53.706;10.384;2024-03-23T12:46:43;6.40;99.90
18934;DHT22;9599;53.706;10.384;2024-03-23T12:49:11;6.60;99.90
18934;DHT22;9599;53.706;10.384;2024-03-23T12:51:38;6.70;99.90
18934;DHT22;9599;53.706;10.384;2024-03-23T12:54:04;6.90;99.90
18934;DHT22;9599;53.706;10.384;2024-03-23T12:56:32;7.10;99.90
18934;DHT22;9599;53.706;10.384;2024-03-23T12:58:58;7.60;99.90
18934;DHT22;9599;53.706;10.384;2024-03-23T13:01:25;8.10;99.90
18934;DHT22;9599;53.706;10.384;2024-03-23T13:03:53;8.50;99.90
18934;DHT22;9599;53.706;10.384;2024-03-23T13:06:20;8.80;99.90
18934;DHT22;9599;53.706;10.384;2024-03-23T13:08:47;8.80;99.90
18934;DHT22;9599;53.706;10.384;2024-03-23T13:11:16;8.60;99.90
18934;DHT22;9599;53.706;10.384;2024-03-23T13:13:42;8.40;99.90
18934;DHT22;9599;53.706;10.384;2024-03-23T13:16:09;8.10;99.90
18934;DHT22;9599;53.706;10.384;2024-03-23T13:18:35;7.80;99.90
18934;DHT22;9599;53.706;10.384;2024-03-23T13:21:04;7.60;99.90
18934;DHT22;9599;53.706;10.384;2024-03-23T13:23:30;7.50;99.90
18934;DHT22;9599;53.706;10.384;2024-03-23T13:25:58;7.50;99.90
18934;DHT22;9599;53.706;10.384;2024-03-23T13:28:24;7.30;99.90
18934;DHT22;9599;53.706;10.384;2024-03-23T13:30:52;7.30;99.90
18934;DHT22;9599;53.706;10.384;2024-03-23T13:33:19;7.40;99.90
18934;DHT22;9599;53.706;10.384;2024-03-23T13:35:50;7.70;99.90
18934;DHT22;9599;53.706;10.384;2024-03-23T13:38:19;7.90;99.90
18934;DHT22;9599;53.706;10.384;2024-03-23T13:40:54;8.00;99.90
18934;DHT22;9599;53.706;10.384;2024-03-23T13:43:20;8.10;99.90
18934;DHT22;9599;53.706;10.384;2024-03-23T13:45:48;8.20;99.90
18934;DHT22;9599;53.706;10.384;2024-03-23T13:48:15;8.40;99.90
18934;DHT22;9599;53.706;10.384;2024-03-23T13:50:43;8.50;99.90
18934;DHT22;9599;53.706;10.384;2024-03-23T13:53:09;8.60;99.90
18934;DHT22;9599;53.706;10.384;2024-03-23T13:55:38;8.60;99.90
18934;DHT22;9599;53.706;10.384;2024-03-23T13:58:11;8.50;99.90
18934;DHT22;9599;53.706;10.384;2024-03-23T14:00:39;8.40;99.90
18934;DHT22;9599;53.706;10.384;2024-03-23T14:03:05;8.20;99.90
18934;DHT22;9599;53.706;10.384;2024-03-23T14:05:32;7.80;99.90
18934;DHT22;9599;53.706;10.384;2024-03-23T14:07:58;7.60;99.90
18934;DHT22;9599;53.706;10.384;2024-03-23T14:10:26;7.40;99.90
18934;DHT22;9599;53.706;10.384;2024-03-23T14:12:54;7.20;99.90
18934;DHT22;9599;53.706;10.384;2024-03-23T14:15:22;7.00;99.90
18934;DHT22;9599;53.706;10.384;2024-03-23T14:17:49;7.00;99.90
18934;DHT22;9599;53.706;10.384;2024-03-23T14:20:17;7.40;99.90
18934;DHT22;9599;53.706;10.384;2024-03-23T14:22:43;7.50;99.90
18934;DHT22;9599;53.706;10.384;2024-03-23T14:25:10;7.60;99.90
18934;DHT22;9599;53.706;10.384;2024-03-23T14:27:37;7.70;99.90
18934;DHT22;9599;53.706;10.384;2024-03-23T14:30:06;7.80;99.90
18934;DHT22;9599;53.706;10.384;2024-03-23T14:32:33;8.10;99.90
18934;DHT22;9599;53.706;10.384;2024-03-23T14:35:00;8.20;99.90
18934;DHT22;9599;53.706;10.384;2024-03-23T14:37:27;8.20;99.90
18934;DHT22;9599;53.706;10.384;2024-03-23T14:39:55;8.20;99.90
18934;DHT22;9599;53.706;10.384;2024-03-23T14:42:22;8.30;99.90
18934;DHT22;9599;53.706;10.384;2024-03-23T14:44:49;8.40;99.90
18934;DHT22;9599;53.706;10.384;2024-03-23T14:47:17;8.50;99.90
18934;DHT22;9599;53.706;10.384;2024-03-23T14:49:44;8.40;99.90
18934;DHT22;9599;53.706;10.384;2024-03-23T14:52:13;8.50;99.90
18934;DHT22;9599;53.706;10.384;2024-03-23T14:54:40;8.60;99.90
18934;DHT22;9599;53.706;10.384;2024-03-23T14:57:06;8.50;99.90
18934;DHT22;9599;53.706;10.384;2024-03-23T14:59:34;8.50;99.90
18934;DHT22;9599;53.706;10.384;2024-03-23T15:02:01;8.40;99.90
18934;DHT22;9599;53.706;10.384;2024-03-23T15:04:29;8.40;99.90
18934;DHT22;9599;53.706;10.384;2024-03-23T15:06:56;8.40;99.90
18934;DHT22;9599;53.706;10.384;2024-03-23T15:09:23;8.30;99.90
18934;DHT22;9599;53.706;10.384;2024-03-23T15:11:49;8.20;99.90
18934;DHT22;9599;53.706;10.384;2024-03-23T15:14:16;8.10;99.90
18934;DHT22;9599;53.706;10.384;2024-03-23T15:16:43;8.00;99.90
18934;DHT22;9599;53.706;10.384;2024-03-23T15:19:09;8.10;99.90
18934;DHT22;9599;53.706;10.384;2024-03-23T15:21:38;8.10;99.90
18934;DHT22;9599;53.706;10.384;2024-03-23T15:24:05;8.20;99.90
18934;DHT22;9599;53.706;10.384;2024-03-23T15:26:32;8.30;99.90
18934;DHT22;9599;53.706;10.384;2024-03-23T15:28:59;8.40;99.90
18934;DHT22;9599;53.706;10.384;2024-03-23T15:31:38;8.40;99.90
18934;DHT22;9599;53.706;10.384;2024-03-23T15:34:04;8.40;99.90
18934;DHT22;9599;53.706;10.384;2024-03-23T15:36:36;8.50;99.90
18934;DHT22;9599;53.706;10.384;2024-03-23T15:39:05;8.40;99.90
18934;DHT22;9599;53.706;10.384;2024-03-23T15:41:33;8.40;99.90
18934;DHT22;9599;53.706;10.384;2024-03-23T15:44:01;8.50;99.90
18934;DHT22;9599;53.706;10.384;2024-03-23T15:46:28;8.60;99.90
18934;DHT22;9599;53.706;10.384;2024-03-23T15:48:54;8.70;99.90
18934;DHT22;9599;53.706;10.384;2024-03-23T15:51:23;8.80;99.90
18934;DHT22;9599;53.706;10.384;2024-03-23T15:53:49;8.70;99.90
18934;DHT22;9599;53.706;10.384;2024-03-23T15:56:20;8.70;99.90
18934;DHT22;9599;53.706;10.384;2024-03-23T15:58:46;8.70;99.90
18934;DHT22;9599;53.706;10.384;2024-03-23T16:01:13;8.70;99.90
18934;DHT22;9599;53.706;10.384;2024-03-23T16:03:40;8.70;99.90
18934;DHT22;9599;53.706;10.384;2024-03-23T16:06:07;8.70;99.90
18934;DHT22;9599;53.706;10.384;2024-03-23T16:08:34;8.70;99.90
18934;DHT22;9599;53.706;10.384;2024-03-23T16:11:03;8.70;99.90
18934;DHT22;9599;53.706;10.384;2024-03-23T16:13:31;8.80;99.90
18934;DHT22;9599;53.706;10.384;2024-03-23T16:15:59;8.70;99.90
18934;DHT22;9599;53.706;10.384;2024-03-23T16:18:25;8.40;99.90
18934;DHT22;9599;53.706;10.384;2024-03-23T16:20:57;8.30;99.90
18934;DHT22;9599;53.706;10.384;2024-03-23T16:23:24;8.10;99.90
18934;DHT22;9599;53.706;10.384;2024-03-23T16:25:52;8.00;99.90
18934;DHT22;9599;53.706;10.384;2024-03-23T16:28:25;8.00;99.90
18934;DHT22;9599;53.706;10.384;2024-03-23T16:30:56;7.90;99.90
18934;DHT22;9599;53.706;10.384;2024-03-23T16:33:22;7.90;99.90
18934;DHT22;9599;53.706;10.384;2024-03-23T16:35:57;7.70;99.90
18934;DHT22;9599;53.706;10.384;2024-03-23T16:38:23;7.60;99.90
18934;DHT22;9599;53.706;10.384;2024-03-23T16:40:55;7.60;99.90